Portada
METAR-TAF:

METAR-TAF

Aeroports :

Presque_Isle_County_Airport

Rogers City, Michigan, Estats Units d'Amèrica

latitud: 45-24-25N, longitud: 083-48-46W, altitud: 204 m

Observació

L'informe es va fer fa 24 minuts, a les 07:35 UTC
Vent 10 kt del Sud-Oest amb ràfegues de 15 kt
Temperatura -3°C
Humitat 80%
Pressió 1021 hPa
Visibilitat: 16.1 km
Cel clar

METAR: KPZQ 220735Z AUTO 22010G15KT 10SM CLR M03/M06 A3016 RMK AO2 T10301063

Hora: 02:59 (07:59 UTC)


TAF: manca

Observacions i pronòstics meteorològics de més de 4000 aeroports (METAR i TAF).

Les estacions disponibles són els punts grocs i vermells al mapa.

Posi el ratolí al punt desitjat per veure el nom de l'estació.

Feu clic per veure les observacions i els pronòstics meteorològics.

Per canviar el mapa: feu clic els botons verds amb una creu de color negre per apropar; al botó verd amb un guió per allunyar la imatge; o en les fletxes verdes per a mapes adjacents.


METAR-TAF: